sensor_id;sensor_type;location;lat;lon;timestamp;pressure;altitude;pressure_sealevel;temperature;humidity
50349;BME280;36250;48.740;22.174;2024-03-23T00:55:33;100220.38;;;14.93;47.68
50349;BME280;36250;48.740;22.174;2024-03-23T00:57:58;100215.41;;;14.95;47.25
50349;BME280;36250;48.740;22.174;2024-03-23T01:00:23;100214.34;;;14.96;47.28
50349;BME280;36250;48.740;22.174;2024-03-23T01:02:49;100212.41;;;14.96;47.09
50349;BME280;36250;48.740;22.174;2024-03-23T01:05:14;100214.03;;;14.97;47.36
50349;BME280;36250;48.740;22.174;2024-03-23T01:07:39;100208.31;;;14.94;47.07
50349;BME280;36250;48.740;22.174;2024-03-23T01:10:05;100201.41;;;15.01;47.02
50349;BME280;36250;48.740;22.174;2024-03-23T01:12:30;100197.34;;;14.94;46.82
50349;BME280;36250;48.740;22.174;2024-03-23T01:14:56;100189.38;;;14.92;47.57
50349;BME280;36250;48.740;22.174;2024-03-23T01:17:21;100186.66;;;14.87;47.67
50349;BME280;36250;48.740;22.174;2024-03-23T01:19:47;100179.28;;;14.78;47.87
50349;BME280;36250;48.740;22.174;2024-03-23T01:22:12;100180.41;;;14.72;47.63
50349;BME280;36250;48.740;22.174;2024-03-23T01:24:37;100171.91;;;14.68;48.04
50349;BME280;36250;48.740;22.174;2024-03-23T01:27:03;100169.19;;;14.63;47.96
50349;BME280;36250;48.740;22.174;2024-03-23T01:29:28;100165.91;;;14.61;47.73
50349;BME280;36250;48.740;22.174;2024-03-23T01:31:54;100171.41;;;14.61;47.72
50349;BME280;36250;48.740;22.174;2024-03-23T01:34:19;100172.47;;;14.65;47.61
50349;BME280;36250;48.740;22.174;2024-03-23T01:36:46;100161.78;;;14.64;47.44
50349;BME280;36250;48.740;22.174;2024-03-23T01:39:12;100163.47;;;14.60;47.42
50349;BME280;36250;48.740;22.174;2024-03-23T01:41:37;100165.63;;;14.58;47.13
50349;BME280;36250;48.740;22.174;2024-03-23T01:44:05;100166.75;;;14.52;47.50
50349;BME280;36250;48.740;22.174;2024-03-23T01:46:35;100164.84;;;14.47;47.58
50349;BME280;36250;48.740;22.174;2024-03-23T01:49:01;100175.53;;;14.43;47.63
50349;BME280;36250;48.740;22.174;2024-03-23T01:51:27;100164.84;;;14.47;47.47
50349;BME280;36250;48.740;22.174;2024-03-23T01:53:54;100164.31;;;14.45;47.73
50349;BME280;36250;48.740;22.174;2024-03-23T01:56:20;100163.19;;;14.46;47.58
50349;BME280;36250;48.740;22.174;2024-03-23T01:58:45;100166.22;;;14.39;47.77
50349;BME280;36250;48.740;22.174;2024-03-23T02:01:11;100178.00;;;14.35;48.00
50349;BME280;36250;48.740;22.174;2024-03-23T02:03:36;100175.53;;;14.33;47.60
50349;BME280;36250;48.740;22.174;2024-03-23T02:06:02;100181.84;;;14.34;47.53
50349;BME280;36250;48.740;22.174;2024-03-23T02:08:28;100173.34;;;14.25;47.83
50349;BME280;36250;48.740;22.174;2024-03-23T02:10:55;100179.06;;;14.19;48.03
50349;BME280;36250;48.740;22.174;2024-03-23T02:13:20;100181.00;;;14.13;48.16
50349;BME280;36250;48.740;22.174;2024-03-23T02:15:46;100180.44;;;14.06;49.21
50349;BME280;36250;48.740;22.174;2024-03-23T02:18:11;100179.06;;;13.99;49.22
50349;BME280;36250;48.740;22.174;2024-03-23T02:20:37;100178.25;;;13.83;49.53
50349;BME280;36250;48.740;22.174;2024-03-23T02:23:03;100177.94;;;13.69;49.97
50349;BME280;36250;48.740;22.174;2024-03-23T02:25:31;100174.41;;;13.74;49.99
50349;BME280;36250;48.740;22.174;2024-03-23T02:27:57;100170.28;;;13.81;50.01
50349;BME280;36250;48.740;22.174;2024-03-23T02:30:25;100167.03;;;13.84;50.10
50349;BME280;36250;48.740;22.174;2024-03-23T02:32:50;100165.13;;;13.85;50.20
50349;BME280;36250;48.740;22.174;2024-03-23T02:35:15;100160.72;;;13.84;50.01
50349;BME280;36250;48.740;22.174;2024-03-23T02:37:40;100159.63;;;13.70;49.87
50349;BME280;36250;48.740;22.174;2024-03-23T02:40:06;100159.06;;;13.63;50.34
50349;BME280;36250;48.740;22.174;2024-03-23T02:42:32;100161.81;;;13.63;49.66
50349;BME280;36250;48.740;22.174;2024-03-23T02:44:59;100152.50;;;13.64;50.28
50349;BME280;36250;48.740;22.174;2024-03-23T02:47:24;100144.31;;;13.59;50.34
50349;BME280;36250;48.740;22.174;2024-03-23T02:49:49;100143.47;;;13.53;50.14
50349;BME280;36250;48.740;22.174;2024-03-23T02:52:15;100145.13;;;13.54;50.34
50349;BME280;36250;48.740;22.174;2024-03-23T02:54:40;100142.38;;;13.49;50.60
50349;BME280;36250;48.740;22.174;2024-03-23T02:57:09;100147.56;;;13.51;50.46
50349;BME280;36250;48.740;22.174;2024-03-23T02:59:35;100146.47;;;13.52;50.45
50349;BME280;36250;48.740;22.174;2024-03-23T03:02:00;100140.72;;;13.53;50.60
50349;BME280;36250;48.740;22.174;2024-03-23T03:04:26;100141.81;;;13.42;50.65
50349;BME280;36250;48.740;22.174;2024-03-23T03:06:51;100133.63;;;13.42;50.90
50349;BME280;36250;48.740;22.174;2024-03-23T03:09:17;100140.16;;;13.36;51.10
50349;BME280;36250;48.740;22.174;2024-03-23T03:11:42;100133.03;;;13.25;51.14
50349;BME280;36250;48.740;22.174;2024-03-23T03:14:07;100131.91;;;13.26;51.61
50349;BME280;36250;48.740;22.174;2024-03-23T03:16:33;100126.47;;;13.36;51.47
50349;BME280;36250;48.740;22.174;2024-03-23T03:18:58;100118.28;;;13.41;51.51
50349;BME280;36250;48.740;22.174;2024-03-23T03:21:24;100118.00;;;13.48;50.97
50349;BME280;36250;48.740;22.174;2024-03-23T03:23:49;100118.84;;;13.48;50.68
50349;BME280;36250;48.740;22.174;2024-03-23T03:26:16;100116.41;;;13.57;50.82
50349;BME280;36250;48.740;22.174;2024-03-23T03:28:42;100114.47;;;13.57;50.56
50349;BME280;36250;48.740;22.174;2024-03-23T03:31:09;100109.56;;;13.54;51.04
50349;BME280;36250;48.740;22.174;2024-03-23T03:33:34;100102.44;;;13.53;50.58
50349;BME280;36250;48.740;22.174;2024-03-23T03:35:59;100107.38;;;13.61;50.43
50349;BME280;36250;48.740;22.174;2024-03-23T03:38:25;100102.19;;;13.70;50.00
50349;BME280;36250;48.740;22.174;2024-03-23T03:40:50;100103.00;;;13.75;49.77
50349;BME280;36250;48.740;22.174;2024-03-23T03:43:15;100109.31;;;13.76;49.60
50349;BME280;36250;48.740;22.174;2024-03-23T03:45:41;100109.84;;;13.78;49.25
50349;BME280;36250;48.740;22.174;2024-03-23T03:48:07;100114.47;;;13.72;49.28
50349;BME280;36250;48.740;22.174;2024-03-23T03:50:32;100118.88;;;13.68;49.79
50349;BME280;36250;48.740;22.174;2024-03-23T03:52:58;100119.41;;;13.70;50.18
50349;BME280;36250;48.740;22.174;2024-03-23T03:55:23;100102.72;;;13.77;49.94
50349;BME280;36250;48.740;22.174;2024-03-23T03:57:48;100106.81;;;13.74;50.17
50349;BME280;36250;48.740;22.174;2024-03-23T04:00:14;100117.50;;;13.76;50.08
50349;BME280;36250;48.740;22.174;2024-03-23T04:02:40;100116.41;;;13.77;50.06
50349;BME280;36250;48.740;22.174;2024-03-23T04:05:06;100107.41;;;13.76;49.91
50349;BME280;36250;48.740;22.174;2024-03-23T04:07:31;100116.69;;;13.75;49.85
50349;BME280;36250;48.740;22.174;2024-03-23T04:09:56;100112.84;;;13.81;49.71
50349;BME280;36250;48.740;22.174;2024-03-23T04:12:23;100112.84;;;13.92;49.57
50349;BME280;36250;48.740;22.174;2024-03-23T04:14:48;100113.97;;;13.96;49.69
50349;BME280;36250;48.740;22.174;2024-03-23T04:17:14;100112.84;;;13.97;49.52
50349;BME280;36250;48.740;22.174;2024-03-23T04:19:39;100119.44;;;13.96;49.36
50349;BME280;36250;48.740;22.174;2024-03-23T04:22:04;100103.00;;;13.91;49.56
50349;BME280;36250;48.740;22.174;2024-03-23T04:24:30;100103.84;;;13.96;49.72
50349;BME280;36250;48.740;22.174;2024-03-23T04:26:55;100093.69;;;13.97;49.58
50349;BME280;36250;48.740;22.174;2024-03-23T04:29:21;100088.22;;;13.92;49.42
50349;BME280;36250;48.740;22.174;2024-03-23T04:31:46;100089.88;;;13.93;49.51
50349;BME280;36250;48.740;22.174;2024-03-23T04:34:12;100086.31;;;13.92;49.38
50349;BME280;36250;48.740;22.174;2024-03-23T04:36:38;100087.66;;;13.90;49.77
50349;BME280;36250;48.740;22.174;2024-03-23T04:39:03;100084.41;;;13.88;49.60
50349;BME280;36250;48.740;22.174;2024-03-23T04:41:28;100084.69;;;13.81;49.92
50349;BME280;36250;48.740;22.174;2024-03-23T04:43:55;100086.59;;;13.86;49.45
50349;BME280;36250;48.740;22.174;2024-03-23T04:46:20;100082.19;;;13.84;49.43
50349;BME280;36250;48.740;22.174;2024-03-23T04:48:46;100093.16;;;13.79;49.76
50349;BME280;36250;48.740;22.174;2024-03-23T04:51:20;100087.13;;;13.82;49.90
50349;BME280;36250;48.740;22.174;2024-03-23T04:53:46;100077.28;;;13.87;49.70
50349;BME280;36250;48.740;22.174;2024-03-23T04:56:13;100078.94;;;13.88;49.78
50349;BME280;36250;48.740;22.174;2024-03-23T04:58:38;100078.38;;;13.86;49.61
50349;BME280;36250;48.740;22.174;2024-03-23T05:01:04;100091.25;;;13.90;49.76
50349;BME280;36250;48.740;22.174;2024-03-23T05:03:29;100093.69;;;13.97;49.37
50349;BME280;36250;48.740;22.174;2024-03-23T05:05:54;100096.41;;;14.02;49.19
50349;BME280;36250;48.740;22.174;2024-03-23T05:08:20;100091.50;;;13.99;49.44
50349;BME280;36250;48.740;22.174;2024-03-23T05:10:45;100089.88;;;14.03;49.21
50349;BME280;36250;48.740;22.174;2024-03-23T05:13:11;100093.13;;;14.10;49.29
50349;BME280;36250;48.740;22.174;2024-03-23T05:15:37;100100.50;;;14.14;49.29
50349;BME280;36250;48.740;22.174;2024-03-23T05:18:02;100097.78;;;14.19;48.81
50349;BME280;36250;48.740;22.174;2024-03-23T05:20:28;100098.59;;;14.25;48.85
50349;BME280;36250;48.740;22.174;2024-03-23T05:22:55;100096.94;;;14.29;48.79
50349;BME280;36250;48.740;22.174;2024-03-23T05:25:20;100103.50;;;14.33;48.73
50349;BME280;36250;48.740;22.174;2024-03-23T05:27:46;100107.06;;;14.38;48.77
50349;BME280;36250;48.740;22.174;2024-03-23T05:30:11;100107.34;;;14.42;48.56
50349;BME280;36250;48.740;22.174;2024-03-23T05:32:36;100106.22;;;14.43;48.50
50349;BME280;36250;48.740;22.174;2024-03-23T05:35:06;100107.34;;;14.47;48.47
50349;BME280;36250;48.740;22.174;2024-03-23T05:37:32;100104.00;;;14.50;48.33
50349;BME280;36250;48.740;22.174;2024-03-23T05:39:59;100093.03;;;14.55;48.21
50349;BME280;36250;48.740;22.174;2024-03-23T05:42:24;100100.72;;;14.53;48.09
50349;BME280;36250;48.740;22.174;2024-03-23T05:44:50;100093.06;;;14.50;48.58
50349;BME280;36250;48.740;22.174;2024-03-23T05:47:15;100095.84;;;14.45;48.52
50349;BME280;36250;48.740;22.174;2024-03-23T05:49:42;100091.47;;;14.34;48.55
50349;BME280;36250;48.740;22.174;2024-03-23T05:52:08;100089.53;;;14.29;48.97
50349;BME280;36250;48.740;22.174;2024-03-23T05:54:33;100080.28;;;14.30;48.65
50349;BME280;36250;48.740;22.174;2024-03-23T05:56:59;100083.00;;;14.30;49.02
50349;BME280;36250;48.740;22.174;2024-03-23T05:59:24;100081.63;;;14.28;48.43
50349;BME280;36250;48.740;22.174;2024-03-23T06:01:50;100075.59;;;14.31;48.41
50349;BME280;36250;48.740;22.174;2024-03-23T06:04:15;100079.44;;;14.35;48.31
50349;BME280;36250;48.740;22.174;2024-03-23T06:06:41;100080.50;;;14.39;48.55
50349;BME280;36250;48.740;22.174;2024-03-23T06:09:06;100083.44;;;14.58;48.32
50349;BME280;36250;48.740;22.174;2024-03-23T06:11:31;100083.16;;;14.69;48.19
50349;BME280;36250;48.740;22.174;2024-03-23T06:13:57;100079.75;;;14.92;47.87
50349;BME280;36250;48.740;22.174;2024-03-23T06:16:22;100087.94;;;15.02;47.23
50349;BME280;36250;48.740;22.174;2024-03-23T06:18:52;100086.00;;;15.08;46.83
50349;BME280;36250;48.740;22.174;2024-03-23T06:21:18;100076.94;;;15.07;47.06
50349;BME280;36250;48.740;22.174;2024-03-23T06:23:44;100087.00;;;15.22;46.83
50349;BME280;36250;48.740;22.174;2024-03-23T06:26:17;100080.91;;;15.30;46.64
50349;BME280;36250;48.740;22.174;2024-03-23T06:28:43;100086.56;;;15.44;46.32
50349;BME280;36250;48.740;22.174;2024-03-23T06:31:11;100071.41;;;15.61;46.23
50349;BME280;36250;48.740;22.174;2024-03-23T06:33:37;100075.94;;;15.76;46.09
50349;BME280;36250;48.740;22.174;2024-03-23T06:36:06;100082.34;;;15.95;45.66
50349;BME280;36250;48.740;22.174;2024-03-23T06:38:33;100083.31;;;16.09;45.01
50349;BME280;36250;48.740;22.174;2024-03-23T06:41:02;100074.81;;;16.11;45.34
50349;BME280;36250;48.740;22.174;2024-03-23T06:43:28;100071.56;;;16.32;45.37
50349;BME280;36250;48.740;22.174;2024-03-23T06:45:54;100075.22;;;16.52;44.11
50349;BME280;36250;48.740;22.174;2024-03-23T06:48:20;100072.41;;;16.57;43.92
50349;BME280;36250;48.740;22.174;2024-03-23T06:50:45;100071.78;;;16.65;43.87
50349;BME280;36250;48.740;22.174;2024-03-23T06:53:14;100068.91;;;16.75;43.21
50349;BME280;36250;48.740;22.174;2024-03-23T06:55:40;100068.91;;;16.75;43.12
50349;BME280;36250;48.740;22.174;2024-03-23T06:58:06;100060.44;;;16.90;43.63
50349;BME280;36250;48.740;22.174;2024-03-23T07:00:32;100054.16;;;17.27;43.36
50349;BME280;36250;48.740;22.174;2024-03-23T07:02:58;100051.47;;;17.40;42.93
50349;BME280;36250;48.740;22.174;2024-03-23T07:05:23;100041.28;;;17.59;42.65
50349;BME280;36250;48.740;22.174;2024-03-23T07:07:48;100040.00;;;17.70;41.71
50349;BME280;36250;48.740;22.174;2024-03-23T07:10:14;100041.72;;;17.66;41.63
50349;BME280;36250;48.740;22.174;2024-03-23T07:12:39;100040.19;;;17.60;42.04
50349;BME280;36250;48.740;22.174;2024-03-23T07:15:05;100039.41;;;17.36;41.58
50349;BME280;36250;48.740;22.174;2024-03-23T07:17:30;100041.97;;;17.14;42.26
50349;BME280;36250;48.740;22.174;2024-03-23T07:19:57;100039.31;;;17.09;41.90
50349;BME280;36250;48.740;22.174;2024-03-23T07:22:23;100029.97;;;17.05;42.66
50349;BME280;36250;48.740;22.174;2024-03-23T07:24:49;100034.31;;;17.11;42.87
50349;BME280;36250;48.740;22.174;2024-03-23T07:27:14;100031.34;;;17.26;42.64
50349;BME280;36250;48.740;22.174;2024-03-23T07:29:40;100022.41;;;17.34;42.79
50349;BME280;36250;48.740;22.174;2024-03-23T07:32:05;100024.72;;;17.46;42.58
50349;BME280;36250;48.740;22.174;2024-03-23T07:34:30;100009.38;;;17.58;42.10
50349;BME280;36250;48.740;22.174;2024-03-23T07:36:56;100014.16;;;17.53;42.41
50349;BME280;36250;48.740;22.174;2024-03-23T07:39:21;100015.50;;;17.55;42.60
50349;BME280;36250;48.740;22.174;2024-03-23T07:41:46;100012.75;;;17.55;42.39
50349;BME280;36250;48.740;22.174;2024-03-23T07:44:12;100017.25;;;17.65;42.37
50349;BME280;36250;48.740;22.174;2024-03-23T07:46:37;100015.41;;;17.60;42.24
50349;BME280;36250;48.740;22.174;2024-03-23T07:49:05;100017.44;;;17.55;42.18
50349;BME280;36250;48.740;22.174;2024-03-23T07:51:31;100020.22;;;17.50;42.70
50349;BME280;36250;48.740;22.174;2024-03-23T07:53:56;100009.94;;;17.74;42.73
50349;BME280;36250;48.740;22.174;2024-03-23T07:56:22;100010.28;;;18.00;42.41
50349;BME280;36250;48.740;22.174;2024-03-23T07:58:48;100013.91;;;18.14;41.94
50349;BME280;36250;48.740;22.174;2024-03-23T08:01:15;100005.63;;;18.14;41.98
50349;BME280;36250;48.740;22.174;2024-03-23T08:03:43;100005.91;;;17.99;42.42
50349;BME280;36250;48.740;22.174;2024-03-23T08:08:38;99990.41;;;18.03;41.65
50349;BME280;36250;48.740;22.174;2024-03-23T08:11:04;99992.75;;;17.96;41.92
50349;BME280;36250;48.740;22.174;2024-03-23T08:13:30;99983.47;;;17.92;42.11
50349;BME280;36250;48.740;22.174;2024-03-23T08:16:02;99992.63;;;17.87;42.03
50349;BME280;36250;48.740;22.174;2024-03-23T08:18:28;99987.44;;;17.99;42.53
50349;BME280;36250;48.740;22.174;2024-03-23T08:21:04;99994.72;;;18.09;42.44
50349;BME280;36250;48.740;22.174;2024-03-23T08:23:34;99988.59;;;18.12;42.06
50349;BME280;36250;48.740;22.174;2024-03-23T08:26:02;99986.06;;;18.29;42.49
50349;BME280;36250;48.740;22.174;2024-03-23T08:28:27;99985.72;;;18.44;42.17
50349;BME280;36250;48.740;22.174;2024-03-23T08:30:54;99981.44;;;18.52;41.28
50349;BME280;36250;48.740;22.174;2024-03-23T08:33:20;99985.03;;;18.52;41.60
50349;BME280;36250;48.740;22.174;2024-03-23T08:36:05;99976.13;;;18.69;41.16
50349;BME280;36250;48.740;22.174;2024-03-23T08:38:31;99978.16;;;18.77;40.76
50349;BME280;36250;48.740;22.174;2024-03-23T08:43:29;99974.16;;;18.83;40.60
50349;BME280;36250;48.740;22.174;2024-03-23T08:48:31;99970.00;;;19.30;39.84
50349;BME280;36250;48.740;22.174;2024-03-23T08:51:07;99967.06;;;19.26;39.85
50349;BME280;36250;48.740;22.174;2024-03-23T08:53:34;99958.47;;;19.28;40.23
50349;BME280;36250;48.740;22.174;2024-03-23T08:56:00;99950.97;;;19.42;40.22
50349;BME280;36250;48.740;22.174;2024-03-23T08:58:26;99946.06;;;19.61;40.25
50349;BME280;36250;48.740;22.174;2024-03-23T09:00:53;99944.34;;;19.74;39.43
50349;BME280;36250;48.740;22.174;2024-03-23T09:03:22;99938.66;;;19.70;39.19
50349;BME280;36250;48.740;22.174;2024-03-23T09:05:47;99927.25;;;19.63;38.84
50349;BME280;36250;48.740;22.174;2024-03-23T09:08:12;99922.06;;;19.70;39.46
50349;BME280;36250;48.740;22.174;2024-03-23T09:10:38;99919.22;;;19.84;38.97
50349;BME280;36250;48.740;22.174;2024-03-23T09:13:04;99917.13;;;19.89;38.65
50349;BME280;36250;48.740;22.174;2024-03-23T09:15:30;99911.81;;;20.01;38.55
50349;BME280;36250;48.740;22.174;2024-03-23T09:17:56;99903.97;;;20.34;37.71
50349;BME280;36250;48.740;22.174;2024-03-23T09:20:21;99901.56;;;20.50;38.04
50349;BME280;36250;48.740;22.174;2024-03-23T09:22:48;99896.38;;;20.65;37.66
50349;BME280;36250;48.740;22.174;2024-03-23T09:25:13;99895.44;;;20.95;37.50
50349;BME280;36250;48.740;22.174;2024-03-23T09:27:39;99892.50;;;21.09;36.88
50349;BME280;36250;48.740;22.174;2024-03-23T09:30:05;99883.97;;;21.40;36.32
50349;BME280;36250;48.740;22.174;2024-03-23T09:32:30;99878.94;;;21.42;36.26
50349;BME280;36250;48.740;22.174;2024-03-23T09:34:55;99885.13;;;21.30;35.67
50349;BME280;36250;48.740;22.174;2024-03-23T09:37:21;99887.44;;;21.11;35.81
50349;BME280;36250;48.740;22.174;2024-03-23T09:39:46;99883.38;;;21.17;35.79
50349;BME280;36250;48.740;22.174;2024-03-23T09:42:11;99883.38;;;21.09;36.10
50349;BME280;36250;48.740;22.174;2024-03-23T09:44:37;99877.69;;;21.05;36.41
50349;BME280;36250;48.740;22.174;2024-03-23T09:47:02;99862.38;;;20.73;36.56
50349;BME280;36250;48.740;22.174;2024-03-23T09:49:28;99859.44;;;20.53;37.20
50349;BME280;36250;48.740;22.174;2024-03-23T09:51:54;99866.78;;;20.66;37.03
50349;BME280;36250;48.740;22.174;2024-03-23T09:54:20;99870.66;;;20.82;37.24
50349;BME280;36250;48.740;22.174;2024-03-23T09:56:47;99872.59;;;20.98;37.07
50349;BME280;36250;48.740;22.174;2024-03-23T09:59:12;99869.88;;;20.90;37.14
50349;BME280;36250;48.740;22.174;2024-03-23T10:01:37;99870.16;;;20.88;36.91
50349;BME280;36250;48.740;22.174;2024-03-23T10:04:03;99866.44;;;20.93;37.18
50349;BME280;36250;48.740;22.174;2024-03-23T10:06:28;99861.22;;;20.91;37.40
50349;BME280;36250;48.740;22.174;2024-03-23T10:08:53;99865.28;;;20.94;37.59
50349;BME280;36250;48.740;22.174;2024-03-23T10:11:20;99869.03;;;20.89;37.86
50349;BME280;36250;48.740;22.174;2024-03-23T10:13:46;99859.63;;;20.90;37.64
50349;BME280;36250;48.740;22.174;2024-03-23T10:16:12;99853.09;;;20.95;38.08
50349;BME280;36250;48.740;22.174;2024-03-23T10:18:45;99844.78;;;20.95;38.10
50349;BME280;36250;48.740;22.174;2024-03-23T10:21:11;99843.97;;;20.94;38.20
50349;BME280;36250;48.740;22.174;2024-03-23T10:23:41;99841.38;;;20.81;38.57
50349;BME280;36250;48.740;22.174;2024-03-23T10:31:33;99830.81;;;20.66;39.16
50349;BME280;36250;48.740;22.174;2024-03-23T10:33:58;99823.97;;;20.72;39.40
50349;BME280;36250;48.740;22.174;2024-03-23T10:36:26;99814.84;;;20.54;39.00
50349;BME280;36250;48.740;22.174;2024-03-23T10:38:52;99816.81;;;20.54;39.55
50349;BME280;36250;48.740;22.174;2024-03-23T10:41:18;99821.03;;;20.60;39.53
50349;BME280;36250;48.740;22.174;2024-03-23T10:43:48;99809.00;;;20.56;38.90
50349;BME280;36250;48.740;22.174;2024-03-23T10:46:15;99810.78;;;20.43;39.45
50349;BME280;36250;48.740;22.174;2024-03-23T10:48:41;99810.47;;;20.45;39.86
50349;BME280;36250;48.740;22.174;2024-03-23T10:51:08;99805.59;;;20.50;39.68
50349;BME280;36250;48.740;22.174;2024-03-23T10:53:35;99793.72;;;20.50;39.71
50349;BME280;36250;48.740;22.174;2024-03-23T10:56:02;99795.66;;;20.41;39.96
50349;BME280;36250;48.740;22.174;2024-03-23T10:58:31;99796.50;;;20.41;39.91
50349;BME280;36250;48.740;22.174;2024-03-23T11:00:58;99786.09;;;20.47;39.83
50349;BME280;36250;48.740;22.174;2024-03-23T11:03:37;99790.13;;;20.58;40.01
50349;BME280;36250;48.740;22.174;2024-03-23T11:06:07;99786.41;;;20.71;39.96
50349;BME280;36250;48.740;22.174;2024-03-23T11:08:35;99777.94;;;20.76;39.68
50349;BME280;36250;48.740;22.174;2024-03-23T11:11:20;99773.69;;;20.78;39.77
50349;BME280;36250;48.740;22.174;2024-03-23T11:13:53;99771.56;;;20.84;39.68
50349;BME280;36250;48.740;22.174;2024-03-23T11:16:22;99774.44;;;20.96;39.60
50349;BME280;36250;48.740;22.174;2024-03-23T11:18:49;99768.09;;;21.04;39.17
50349;BME280;36250;48.740;22.174;2024-03-23T11:21:52;99762.34;;;21.26;39.25
50349;BME280;36250;48.740;22.174;2024-03-23T11:24:19;99744.31;;;21.49;38.86
50349;BME280;36250;48.740;22.174;2024-03-23T11:26:45;99734.31;;;21.66;38.73
50349;BME280;36250;48.740;22.174;2024-03-23T11:29:15;99731.97;;;21.76;38.26
50349;BME280;36250;48.740;22.174;2024-03-23T11:34:12;99712.41;;;22.02;38.10
50349;BME280;36250;48.740;22.174;2024-03-23T11:36:38;99711.88;;;22.08;37.91
50349;BME280;36250;48.740;22.174;2024-03-23T11:39:19;99709.56;;;22.31;38.03
50349;BME280;36250;48.740;22.174;2024-03-23T11:41:49;99701.72;;;22.33;37.41
50349;BME280;36250;48.740;22.174;2024-03-23T11:44:25;99688.19;;;22.32;37.35
50349;BME280;36250;48.740;22.174;2024-03-23T11:46:52;99693.31;;;22.42;37.77
50349;BME280;36250;48.740;22.174;2024-03-23T11:49:24;99694.66;;;22.36;36.99
50349;BME280;36250;48.740;22.174;2024-03-23T11:51:52;99686.72;;;22.13;37.49
50349;BME280;36250;48.740;22.174;2024-03-23T11:54:26;99687.25;;;22.07;37.64
50349;BME280;36250;48.740;22.174;2024-03-23T11:57:04;99686.13;;;22.08;37.96
50349;BME280;36250;48.740;22.174;2024-03-23T11:59:31;99681.84;;;21.90;37.89
50349;BME280;36250;48.740;22.174;2024-03-23T12:01:56;99678.63;;;21.88;38.42
50349;BME280;36250;48.740;22.174;2024-03-23T12:04:29;99677.34;;;21.85;38.10
50349;BME280;36250;48.740;22.174;2024-03-23T12:09:35;99651.00;;;21.71;38.98
50349;BME280;36250;48.740;22.174;2024-03-23T12:12:15;99649.25;;;21.66;38.91
50349;BME280;36250;48.740;22.174;2024-03-23T12:14:45;99650.50;;;21.48;39.03
50349;BME280;36250;48.740;22.174;2024-03-23T12:17:12;99638.59;;;21.47;38.91
50349;BME280;36250;48.740;22.174;2024-03-23T12:19:38;99629.16;;;21.48;38.95
50349;BME280;36250;48.740;22.174;2024-03-23T12:22:05;99619.28;;;21.39;39.54
50349;BME280;36250;48.740;22.174;2024-03-23T12:24:34;99621.78;;;21.32;39.99
50349;BME280;36250;48.740;22.174;2024-03-23T12:27:03;99619.81;;;21.32;39.78
50349;BME280;36250;48.740;22.174;2024-03-23T12:29:30;99612.00;;;21.34;40.07
50349;BME280;36250;48.740;22.174;2024-03-23T12:31:59;99608.22;;;21.39;39.77
50349;BME280;36250;48.740;22.174;2024-03-23T12:34:24;99606.59;;;21.38;39.70
50349;BME280;36250;48.740;22.174;2024-03-23T12:36:50;99601.25;;;21.33;40.33
50349;BME280;36250;48.740;22.174;2024-03-23T12:39:15;99604.47;;;21.35;40.18
50349;BME280;36250;48.740;22.174;2024-03-23T12:41:40;99599.91;;;21.39;40.25
50349;BME280;36250;48.740;22.174;2024-03-23T12:44:06;99592.88;;;21.41;40.47
50349;BME280;36250;48.740;22.174;2024-03-23T12:46:33;99592.88;;;21.41;40.34
50349;BME280;36250;48.740;22.174;2024-03-23T12:48:58;99586.69;;;21.44;40.73
50349;BME280;36250;48.740;22.174;2024-03-23T12:51:24;99576.28;;;21.41;40.56
50349;BME280;36250;48.740;22.174;2024-03-23T12:53:50;99577.75;;;21.39;40.89
50349;BME280;36250;48.740;22.174;2024-03-23T12:56:16;99566.47;;;21.44;40.81
50349;BME280;36250;48.740;22.174;2024-03-23T12:58:41;99567.97;;;21.41;41.44
50349;BME280;36250;48.740;22.174;2024-03-23T13:01:06;99567.16;;;21.41;41.19
50349;BME280;36250;48.740;22.174;2024-03-23T13:03:32;99559.66;;;21.41;41.50
50349;BME280;36250;48.740;22.174;2024-03-23T13:05:57;99546.94;;;21.40;41.39
50349;BME280;36250;48.740;22.174;2024-03-23T13:08:22;99550.88;;;21.39;41.81
50349;BME280;36250;48.740;22.174;2024-03-23T13:10:51;99533.91;;;21.41;41.73
50349;BME280;36250;48.740;22.174;2024-03-23T13:13:17;99543.56;;;21.55;41.75
50349;BME280;36250;48.740;22.174;2024-03-23T13:15:42;99530.91;;;21.67;41.70
50349;BME280;36250;48.740;22.174;2024-03-23T13:18:07;99532.41;;;21.85;41.20
50349;BME280;36250;48.740;22.174;2024-03-23T13:20:35;99531.88;;;22.03;41.33
50349;BME280;36250;48.740;22.174;2024-03-23T13:23:01;99525.00;;;22.09;40.92
50349;BME280;36250;48.740;22.174;2024-03-23T13:25:26;99510.91;;;22.14;40.60
50349;BME280;36250;48.740;22.174;2024-03-23T13:27:52;99512.19;;;22.17;40.07
50349;BME280;36250;48.740;22.174;2024-03-23T13:30:17;99501.56;;;22.19;40.29
50349;BME280;36250;48.740;22.174;2024-03-23T13:32:42;99498.09;;;22.22;39.89
50349;BME280;36250;48.740;22.174;2024-03-23T13:35:07;99505.84;;;22.29;40.07
50349;BME280;36250;48.740;22.174;2024-03-23T13:37:33;99495.56;;;22.29;40.28
50349;BME280;36250;48.740;22.174;2024-03-23T13:39:59;99495.00;;;22.36;40.08
50349;BME280;36250;48.740;22.174;2024-03-23T13:42:24;99479.03;;;22.33;40.09
50349;BME280;36250;48.740;22.174;2024-03-23T13:44:51;99474.09;;;22.38;40.02
50349;BME280;36250;48.740;22.174;2024-03-23T13:47:16;99476.03;;;22.38;40.50
50349;BME280;36250;48.740;22.174;2024-03-23T13:49:41;99478.03;;;22.37;40.07
50349;BME280;36250;48.740;22.174;2024-03-23T13:52:07;99468.75;;;22.33;40.68
50349;BME280;36250;48.740;22.174;2024-03-23T13:54:32;99463.22;;;22.33;40.57